Time;durP1;ratioP1;P1;durP2;ratioP2;P2;SDS_P1;SDS_P2;PMS_P1;PMS_P2;Temp;Humidity;BMP_temperature;BMP_pressure;BME280_temperature;BME280_humidity;BME280_pressure;Samples;Min_cycle;Max_cycle;Signal;HPM_P1;HPM_P2
2022/04/16 00:00:21;;;;;;;20.83;13.57;;;19.40;8.60;;;;;;5053878;28;20102;-62
2022/04/16 00:02:47;;;;;;;19.13;13.48;;;19.40;8.70;;;;;;5072465;28;20120;-63
2022/04/16 00:05:16;;;;;;;18.15;13.40;;;19.30;8.70;;;;;;5051863;28;20048;-62
2022/04/16 00:07:42;;;;;;;17.30;12.50;;;19.30;9.00;;;;;;5052681;28;20352;-63
2022/04/16 00:10:09;;;;;;;14.48;11.88;;;19.50;10.90;;;;;;5043599;28;20775;-63
2022/04/16 00:12:35;;;;;;;16.05;12.40;;;19.40;9.10;;;;;;5047479;28;20403;-64
2022/04/16 00:15:00;;;;;;;14.00;11.63;;;19.30;9.00;;;;;;5032565;28;20103;-64
2022/04/16 00:17:26;;;;;;;15.43;11.98;;;19.20;9.00;;;;;;5070288;28;20039;-64
2022/04/16 00:19:52;;;;;;;15.30;11.38;;;19.20;9.00;;;;;;5072330;28;20481;-64
2022/04/16 00:22:18;;;;;;;20.98;12.52;;;19.20;9.30;;;;;;5053084;28;20502;-63
2022/04/16 00:24:46;;;;;;;15.20;11.13;;;19.20;9.30;;;;;;5052245;28;20032;-64
2022/04/16 00:27:12;;;;;;;14.00;11.32;;;;;;;;;;5051478;28;20029;-64
2022/04/16 00:29:39;;;;;;;18.13;12.20;;;19.10;9.20;;;;;;5051678;28;20032;-64
2022/04/16 00:32:05;;;;;;;18.60;12.77;;;19.10;9.60;;;;;;5065700;28;20555;-63
2022/04/16 00:34:34;;;;;;;16.85;11.77;;;19.10;9.60;;;;;;5066590;28;20115;-64
2022/04/16 00:37:01;;;;;;;13.25;10.32;;;19.00;9.80;;;;;;5033479;28;20048;-64
2022/04/16 00:39:27;;;;;;;15.32;11.55;;;19.00;10.00;;;;;;5052357;28;20423;-64
2022/04/16 00:41:52;;;;;;;11.43;9.57;;;19.00;9.70;;;;;;5063131;28;20048;-64
2022/04/16 00:44:21;;;;;;;14.00;10.60;;;18.90;9.90;;;;;;5072059;28;20481;-64
2022/04/16 00:46:48;;;;;;;15.07;9.93;;;18.90;9.80;;;;;;5053459;28;20152;-63
2022/04/16 00:49:14;;;;;;;11.90;9.98;;;19.00;9.90;;;;;;5052114;28;20106;-64
2022/04/16 00:51:45;;;;;;;11.52;10.05;;;18.90;10.40;;;;;;5051039;28;20539;-63
2022/04/16 00:54:12;;;;;;;15.63;10.65;;;18.80;9.90;;;;;;5065764;28;20478;-64
2022/04/16 00:56:38;;;;;;;11.13;9.95;;;18.90;10.20;;;;;;5066453;28;20379;-64
2022/04/16 00:59:04;;;;;;;11.63;9.48;;;18.90;10.20;;;;;;5071145;28;20074;-64
2022/04/16 01:01:31;;;;;;;11.95;10.05;;;18.90;10.20;;;;;;5069914;28;20083;-64
2022/04/16 01:03:57;;;;;;;15.18;9.68;;;18.80;10.10;;;;;;5051425;28;20025;-64
2022/04/16 01:06:23;;;;;;;12.38;9.93;;;18.80;10.10;;;;;;5050157;28;20029;-64
2022/04/16 01:08:49;;;;;;;13.57;10.45;;;18.70;10.10;;;;;;5052849;28;20029;-64
2022/04/16 01:11:15;;;;;;;12.48;9.38;;;18.70;10.20;;;;;;5071095;28;20075;-64
2022/04/16 01:13:47;;;;;;;13.45;9.43;;;18.70;10.20;;;;;;5067699;28;20025;-64
2022/04/16 01:16:12;;;;;;;12.80;9.85;;;18.70;10.20;;;;;;5033070;28;20391;-64
2022/04/16 01:18:47;;;;;;;13.70;10.15;;;18.80;10.50;;;;;;5050585;28;20026;-63
2022/04/16 01:21:18;;;;;;;12.68;9.98;;;18.80;10.60;;;;;;5050907;28;20500;-64
2022/04/16 01:23:44;;;;;;;11.35;9.07;;;18.70;10.60;;;;;;5050113;28;20439;-64
2022/04/16 01:26:09;;;;;;;12.32;9.48;;;18.70;10.40;;;;;;5051107;28;20021;-64
2022/04/16 01:28:35;;;;;;;11.95;9.57;;;18.70;10.50;;;;;;5049257;28;20474;-64
2022/04/16 01:31:00;;;;;;;12.80;8.82;;;18.70;10.60;;;;;;5029335;28;20469;-65
2022/04/16 01:33:26;;;;;;;11.82;9.25;;;18.70;10.40;;;;;;5029400;28;20030;-64
2022/04/16 01:35:56;;;;;;;11.73;8.85;;;18.60;10.50;;;;;;5047500;28;20039;-65
2022/04/16 01:38:25;;;;;;;13.50;9.48;;;18.70;10.50;;;;;;5047066;28;20178;-64
2022/04/16 01:40:54;;;;;;;9.77;8.60;;;18.60;10.60;;;;;;5041408;28;20044;-64
2022/04/16 01:43:20;;;;;;;11.15;9.52;;;18.60;10.70;;;;;;5038711;28;20107;-64
2022/04/16 01:45:48;;;;;;;12.82;8.85;;;18.60;10.50;;;;;;5041087;28;20103;-64
2022/04/16 01:48:13;;;;;;;14.02;9.13;;;18.50;10.90;;;;;;5041482;28;20489;-64
2022/04/16 01:50:40;;;;;;;10.10;8.63;;;18.50;10.80;;;;;;5046438;28;20156;-64
2022/04/16 01:53:06;;;;;;;15.25;9.30;;;18.50;11.00;;;;;;5049889;28;20092;-64
2022/04/16 01:55:31;;;;;;;12.48;9.45;;;18.70;13.40;;;;;;5064730;28;20049;-64
2022/04/16 01:57:58;;;;;;;11.88;8.75;;;18.60;13.80;;;;;;5070519;28;20032;-64
2022/04/16 02:00:24;;;;;;;11.50;8.88;;;18.60;14.20;;;;;;5054673;28;20021;-65
2022/04/16 02:02:50;;;;;;;15.32;9.55;;;18.60;14.60;;;;;;5049186;28;20037;-64
2022/04/16 02:05:16;;;;;;;11.52;10.20;;;18.60;15.50;;;;;;5049462;28;20029;-64
2022/04/16 02:07:42;;;;;;;12.43;9.88;;;18.60;15.60;;;;;;5055870;28;20029;-64
2022/04/16 02:10:09;;;;;;;13.68;10.25;;;18.60;15.80;;;;;;5070560;28;20116;-64
2022/04/16 02:12:38;;;;;;;12.50;10.07;;;18.50;21.50;;;;;;5073890;28;20028;-64
2022/04/16 02:15:05;;;;;;;14.93;9.93;;;18.50;21.00;;;;;;5061704;28;20021;-64
2022/04/16 02:17:32;;;;;;;11.73;9.60;;;18.50;24.20;;;;;;5052774;28;20033;-64
2022/04/16 02:19:58;;;;;;;11.60;9.27;;;18.50;25.60;;;;;;5061674;28;20033;-64
2022/04/16 02:22:24;;;;;;;12.98;9.57;;;18.40;11.30;;;;;;5073469;28;20374;-64
2022/04/16 02:24:50;;;;;;;12.60;9.57;;;18.40;11.30;;;;;;5070452;28;20477;-64
2022/04/16 02:27:15;;;;;;;14.45;10.20;;;18.30;11.40;;;;;;5073771;28;20025;-64
2022/04/16 02:29:41;;;;;;;13.98;9.52;;;18.30;11.40;;;;;;5065484;28;20071;-64
2022/04/16 02:32:07;;;;;;;13.65;10.32;;;18.30;11.60;;;;;;5035768;28;20029;-64
2022/04/16 02:34:33;;;;;;;12.10;9.65;;;18.40;11.40;;;;;;5056710;28;20028;-64
2022/04/16 02:36:59;;;;;;;16.13;9.77;;;18.40;11.70;;;;;;5054056;28;20035;-64
2022/04/16 02:39:25;;;;;;;12.88;10.48;;;18.40;15.10;;;;;;5068194;28;20074;-64
2022/04/16 02:41:51;;;;;;;15.80;9.90;;;18.40;15.60;;;;;;5053623;28;20390;-65
2022/04/16 02:47:08;;;;;;;11.88;10.05;;;18.40;12.20;;;;;;5053661;28;20560;-64
2022/04/16 02:49:40;;;;;;;13.18;10.38;;;18.40;13.70;;;;;;5044853;28;20028;-65
2022/04/16 02:52:07;;;;;;;13.07;10.63;;;18.20;11.90;;;;;;5053068;28;20048;-64
2022/04/16 02:54:33;;;;;;;12.80;9.85;;;19.00;17.30;;;;;;5051543;28;20030;-65
2022/04/16 02:56:58;;;;;;;14.10;9.63;;;18.30;12.60;;;;;;5050645;28;20144;-65
2022/04/16 02:59:25;;;;;;;14.82;10.73;;;18.40;13.50;;;;;;5050369;28;20024;-64
2022/04/16 03:01:50;;;;;;;12.90;9.80;;;18.30;13.00;;;;;;5052987;28;20459;-65
2022/04/16 03:04:17;;;;;;;13.95;10.63;;;18.30;15.20;;;;;;5051782;28;20039;-64
2022/04/16 03:06:43;;;;;;;18.23;9.75;;;18.10;12.30;;;;;;5052804;28;20102;-64
2022/04/16 03:09:09;;;;;;;16.85;10.63;;;18.20;13.10;;;;;;5052791;28;20026;-64
2022/04/16 03:11:35;;;;;;;14.82;10.20;;;18.20;13.80;;;;;;5073632;28;20086;-65
2022/04/16 03:17:31;;;;;;;13.75;9.88;;;18.00;12.60;;;;;;5073580;28;20036;-65
2022/04/16 03:19:32;;;;;;;15.68;9.48;;;18.00;12.80;;;;;;5039768;28;20044;-63
2022/04/16 03:21:58;;;;;;;16.45;10.68;;;18.00;12.80;;;;;;5058619;28;20037;-63
2022/04/16 03:24:23;;;;;;;17.58;11.57;;;18.00;15.30;;;;;;5052411;28;20107;-63
2022/04/16 03:26:49;;;;;;;15.00;10.38;;;18.10;14.30;;;;;;5053408;28;20033;-63
2022/04/16 03:29:15;;;;;;;17.10;11.95;;;18.10;14.70;;;;;;5052614;28;20029;-63
2022/04/16 03:31:40;;;;;;;16.45;11.05;;;18.00;15.00;;;;;;5071667;28;20056;-63
2022/04/16 03:34:06;;;;;;;13.20;10.57;;;18.10;15.00;;;;;;5073331;28;20099;-63
2022/04/16 03:36:32;;;;;;;15.95;10.70;;;18.00;15.40;;;;;;5051391;28;20036;-63
2022/04/16 03:38:57;;;;;;;15.40;11.15;;;18.00;15.10;;;;;;5053112;28;20453;-64
2022/04/16 03:41:23;;;;;;;16.63;11.63;;;17.90;13.30;;;;;;5052048;28;20401;-63
2022/04/16 03:43:49;;;;;;;14.90;11.68;;;17.80;13.40;;;;;;5053236;28;20033;-64
2022/04/16 03:46:14;;;;;;;14.65;11.30;;;17.80;13.60;;;;;;5068414;28;20071;-63
2022/04/16 03:48:40;;;;;;;18.05;11.73;;;17.80;13.70;;;;;;5072946;28;20479;-63
2022/04/16 03:51:05;;;;;;;18.95;12.40;;;17.80;13.60;;;;;;5056528;28;20040;-64
2022/04/16 03:53:34;;;;;;;16.20;11.05;;;17.80;13.50;;;;;;5051582;28;20471;-64
2022/04/16 04:01:42;;;;;;;16.02;11.77;;;17.80;13.80;;;;;;5067854;28;20355;-64
2022/04/16 04:04:10;;;;;;;17.10;11.70;;;17.60;14.30;;;;;;5044140;28;20025;-64
2022/04/16 04:06:35;;;;;;;20.08;13.07;;;17.70;14.00;;;;;;5069849;28;20026;-64
2022/04/16 04:09:01;;;;;;;17.00;12.18;;;17.60;14.40;;;;;;5071082;28;20103;-64
2022/04/16 04:11:27;;;;;;;17.05;12.23;;;17.60;14.40;;;;;;5052651;28;20048;-64
2022/04/16 04:13:52;;;;;;;17.67;11.88;;;17.60;14.50;;;;;;5052470;28;20033;-64
2022/04/16 04:16:19;;;;;;;17.10;12.52;;;17.60;14.60;;;;;;5051546;28;20029;-64
2022/04/16 04:18:45;;;;;;;18.45;12.48;;;17.60;14.80;;;;;;5052398;28;20041;-64
2022/04/16 04:21:11;;;;;;;15.90;12.30;;;17.60;14.50;;;;;;5051537;28;20065;-63
2022/04/16 04:23:36;;;;;;;19.23;11.65;;;17.60;14.50;;;;;;5052339;28;20527;-63
2022/04/16 04:26:03;;;;;;;18.98;12.25;;;17.60;14.90;;;;;;5051301;28;20104;-64
2022/04/16 04:28:29;;;;;;;17.25;11.65;;;17.60;14.70;;;;;;5051330;28;20052;-63
2022/04/16 04:30:55;;;;;;;18.23;11.60;;;17.60;14.80;;;;;;5055229;28;20382;-63
2022/04/16 04:33:20;;;;;;;16.63;11.88;;;17.50;15.00;;;;;;5051427;28;20025;-63
2022/04/16 04:35:50;;;;;;;15.27;11.07;;;17.60;15.00;;;;;;5032811;28;20413;-64
2022/04/16 04:38:16;;;;;;;18.00;11.10;;;17.50;15.20;;;;;;5052167;28;20017;-64
2022/04/16 04:40:41;;;;;;;15.73;11.75;;;17.50;15.10;;;;;;5051210;28;20025;-63
2022/04/16 04:43:07;;;;;;;17.58;11.88;;;17.50;15.40;;;;;;5034092;28;20082;-64
2022/04/16 04:45:33;;;;;;;19.77;12.32;;;17.60;15.30;;;;;;5059437;28;20028;-63
2022/04/16 04:47:59;;;;;;;18.33;12.80;;;17.50;15.40;;;;;;5057986;28;20646;-63
2022/04/16 04:50:24;;;;;;;17.70;11.80;;;17.50;15.60;;;;;;5033263;28;20073;-63
2022/04/16 04:52:50;;;;;;;16.27;11.40;;;17.50;15.60;;;;;;5052015;28;20028;-63
2022/04/16 04:55:16;;;;;;;17.63;12.32;;;17.50;15.40;;;;;;5055928;28;20059;-64
2022/04/16 04:57:42;;;;;;;20.50;11.70;;;17.50;15.50;;;;;;5067125;28;20028;-63
2022/04/16 05:00:10;;;;;;;21.50;12.48;;;17.40;15.40;;;;;;5052101;28;20017;-64
2022/04/16 05:02:47;;;;;;;17.35;11.48;;;17.60;15.60;;;;;;5051712;28;20086;-64
2022/04/16 05:05:15;;;;;;;21.20;12.70;;;17.50;16.10;;;;;;5050799;28;20023;-63
2022/04/16 05:07:40;;;;;;;21.88;12.40;;;17.50;16.10;;;;;;5051812;28;20159;-64
2022/04/16 05:10:07;;;;;;;20.55;12.20;;;17.50;16.60;;;;;;5050996;28;20478;-63
2022/04/16 05:12:33;;;;;;;18.30;12.75;;;17.50;15.90;;;;;;5051668;28;20031;-63
2022/04/16 05:14:59;;;;;;;19.15;12.02;;;17.50;15.30;;;;;;5050867;28;20188;-64
2022/04/16 05:17:24;;;;;;;18.88;13.02;;;17.50;15.60;;;;;;5051649;28;20025;-64
2022/04/16 05:19:50;;;;;;;18.08;11.80;;;17.50;15.40;;;;;;5050717;28;20025;-63
2022/04/16 05:22:16;;;;;;;16.75;13.05;;;17.50;15.80;;;;;;5050736;28;20037;-63
2022/04/16 05:24:43;;;;;;;17.15;11.75;;;17.60;15.60;;;;;;5032389;28;20044;-63
2022/04/16 05:27:09;;;;;;;18.15;13.13;;;17.60;15.60;;;;;;5070773;28;20028;-63
2022/04/16 05:29:48;;;;;;;18.25;12.55;;;17.60;15.60;;;;;;5071680;28;20350;-63
2022/04/16 05:32:16;;;;;;;18.30;12.18;;;17.60;15.50;;;;;;5069638;28;20028;-63
2022/04/16 05:34:42;;;;;;;18.05;12.65;;;17.60;15.40;;;;;;5050702;28;20028;-64
2022/04/16 05:37:08;;;;;;;23.00;13.65;;;17.60;15.80;;;;;;5043402;28;20033;-64
2022/04/16 05:39:33;;;;;;;19.42;13.88;;;17.60;15.50;;;;;;5040654;28;20434;-64
2022/04/16 05:41:59;;;;;;;19.73;13.73;;;17.70;15.80;;;;;;5040566;28;20048;-63
2022/04/16 05:44:25;;;;;;;20.15;13.00;;;17.70;16.00;;;;;;5040736;28;20397;-63
2022/04/16 05:46:50;;;;;;;18.90;13.38;;;17.70;15.70;;;;;;5050797;28;20033;-63
2022/04/16 05:49:16;;;;;;;18.33;13.50;;;17.80;15.70;;;;;;5054791;28;20047;-64
2022/04/16 05:51:41;;;;;;;20.65;13.57;;;17.80;15.80;;;;;;5064212;28;20031;-63
2022/04/16 05:54:07;;;;;;;24.55;13.55;;;17.80;15.50;;;;;;5058641;28;20045;-63
2022/04/16 05:56:34;;;;;;;19.13;12.75;;;17.80;15.70;;;;;;5059374;28;20124;-63
2022/04/16 05:59:01;;;;;;;19.67;13.70;;;17.80;15.60;;;;;;5055172;28;20033;-63
2022/04/16 06:01:26;;;;;;;17.63;13.55;;;17.80;16.00;;;;;;5052939;28;20443;-63
2022/04/16 06:03:52;;;;;;;17.70;13.85;;;17.80;15.60;;;;;;5055017;28;20118;-63
2022/04/16 06:06:18;;;;;;;17.80;13.60;;;17.80;15.70;;;;;;5065218;28;20039;-63
2022/04/16 06:08:44;;;;;;;20.05;13.75;;;17.80;15.60;;;;;;5060425;28;20025;-63
2022/04/16 06:11:11;;;;;;;18.65;13.00;;;17.90;15.70;;;;;;5053914;28;20033;-63
2022/04/16 06:13:37;;;;;;;22.92;13.93;;;17.90;15.50;;;;;;5053473;28;20074;-63
2022/04/16 06:16:02;;;;;;;20.85;13.13;;;17.90;15.50;;;;;;5062455;28;20029;-64
2022/04/16 06:18:28;;;;;;;20.70;14.43;;;18.00;15.40;;;;;;5074604;28;20114;-63
2022/04/16 06:20:56;;;;;;;17.80;13.32;;;18.00;15.50;;;;;;5065194;28;20035;-63
2022/04/16 06:23:22;;;;;;;22.90;14.02;;;18.00;15.40;;;;;;5056535;28;20052;-63
2022/04/16 06:25:47;;;;;;;30.10;15.98;;;18.10;15.70;;;;;;5053265;28;20024;-63
2022/04/16 06:28:13;;;;;;;24.05;14.20;;;18.10;15.40;;;;;;5054539;28;20041;-63
2022/04/16 06:30:39;;;;;;;28.20;13.57;;;18.00;15.30;;;;;;5060872;28;20031;-62
2022/04/16 06:33:04;;;;;;;23.67;13.30;;;18.10;15.30;;;;;;5074482;28;20032;-63
2022/04/16 06:35:30;;;;;;;20.02;13.50;;;18.20;15.60;;;;;;5072158;28;20035;-63
2022/04/16 06:37:56;;;;;;;24.45;13.93;;;18.20;15.10;;;;;;5074436;28;20024;-63
2022/04/16 06:40:22;;;;;;;22.48;12.90;;;18.20;14.90;;;;;;5069895;28;20055;-63
2022/04/16 06:42:48;;;;;;;24.95;13.70;;;18.30;15.20;;;;;;5039607;28;20033;-63
2022/04/16 06:45:14;;;;;;;19.60;13.20;;;18.30;14.90;;;;;;5035548;28;20026;-63
2022/04/16 06:47:40;;;;;;;17.33;13.70;;;18.30;14.40;;;;;;5053717;28;20500;-63
2022/04/16 06:50:07;;;;;;;20.40;13.88;;;18.30;13.50;;;;;;5053513;28;20047;-63
2022/04/16 06:52:33;;;;;;;24.02;14.05;;;18.30;13.70;;;;;;5037767;28;20055;-63
2022/04/16 06:54:59;;;;;;;20.10;12.73;;;18.40;13.30;;;;;;5072164;28;20033;-63
2022/04/16 06:57:26;;;;;;;19.27;12.70;;;18.50;13.60;;;;;;5045167;28;20105;-61
2022/04/16 06:59:52;;;;;;;22.13;12.95;;;18.40;13.60;;;;;;5053372;28;20029;-61
2022/04/16 07:02:17;;;;;;;17.77;12.85;;;18.50;13.60;;;;;;5051408;28;20033;-63
2022/04/16 07:04:43;;;;;;;18.35;12.57;;;18.50;13.40;;;;;;5053575;28;20036;-63
2022/04/16 07:07:09;;;;;;;20.05;13.10;;;18.50;13.20;;;;;;5052343;28;20461;-63
2022/04/16 07:09:38;;;;;;;19.40;10.63;;;18.60;12.40;;;;;;5053084;28;20490;-63
2022/04/16 07:12:09;;;;;;;17.98;12.18;;;18.60;10.90;;;;;;5068382;28;20052;-63
2022/04/16 07:14:36;;;;;;;18.83;11.23;;;18.60;11.90;;;;;;5073880;28;20167;-64
2022/04/16 07:17:02;;;;;;;15.43;10.23;;;18.70;12.00;;;;;;5056574;28;20113;-63
2022/04/16 07:19:29;;;;;;;17.20;10.20;;;18.70;10.70;;;;;;5053707;28;20021;-63
2022/04/16 07:21:55;;;;;;;17.00;11.05;;;18.80;10.80;;;;;;5064289;28;20036;-63
2022/04/16 07:24:22;;;;;;;16.30;9.98;;;18.80;10.50;;;;;;5053526;28;20028;-63
2022/04/16 07:26:48;;;;;;;15.05;10.15;;;18.80;8.90;;;;;;5051001;28;20028;-63
2022/04/16 07:29:14;;;;;;;14.15;10.65;;;18.80;9.00;;;;;;5049760;28;20029;-63
2022/04/16 07:31:40;;;;;;;14.65;9.82;;;18.90;9.50;;;;;;5054010;28;20048;-63
2022/04/16 07:34:05;;;;;;;14.45;10.45;;;18.90;8.70;;;;;;5052473;28;20029;-63
2022/04/16 07:36:31;;;;;;;16.55;11.55;;;18.90;9.20;;;;;;5052026;28;20017;-63
2022/04/16 07:38:57;;;;;;;14.60;9.25;;;19.00;9.50;;;;;;5052387;28;20161;-64
2022/04/16 07:41:23;;;;;;;18.98;9.93;;;19.10;9.60;;;;;;5051865;28;20115;-64
2022/04/16 07:43:48;;;;;;;12.40;9.50;;;19.10;8.70;;;;;;5052318;28;20021;-64
2022/04/16 07:46:18;;;;;;;18.20;9.25;;;19.10;7.80;;;;;;5050996;28;20501;-64
2022/04/16 07:48:44;;;;;;;16.58;8.30;;;19.20;7.50;;;;;;5033920;28;20021;-64
2022/04/16 07:51:09;;;;;;;15.23;9.55;;;19.20;7.50;;;;;;5050455;28;20051;-64
2022/04/16 07:53:35;;;;;;;11.13;7.30;;;19.30;6.60;;;;;;5046923;28;20047;-64
2022/04/16 07:56:01;;;;;;;9.02;7.10;;;19.30;6.10;;;;;;5043813;28;20444;-64
2022/04/16 07:58:27;;;;;;;10.25;7.20;;;19.30;6.20;;;;;;5030836;28;20049;-64
2022/04/16 08:00:53;;;;;;;8.65;5.40;;;19.40;6.50;;;;;;5048407;28;20091;-64
2022/04/16 08:03:18;;;;;;;11.20;6.30;;;19.50;5.20;;;;;;5042573;28;20037;-63
2022/04/16 08:05:44;;;;;;;10.80;6.22;;;19.50;5.50;;;;;;5045018;28;20524;-63
2022/04/16 08:08:10;;;;;;;11.23;6.38;;;19.60;5.10;;;;;;5043870;28;20125;-64
2022/04/16 08:10:37;;;;;;;11.70;6.25;;;19.60;5.50;;;;;;5045856;28;20070;-63
2022/04/16 08:13:05;;;;;;;12.43;6.28;;;19.70;4.80;;;;;;5041593;28;20029;-64
2022/04/16 08:15:31;;;;;;;13.30;7.70;;;19.70;4.50;;;;;;5039619;28;20036;-64
2022/04/16 08:17:57;;;;;;;12.82;7.63;;;19.70;4.90;;;;;;5048578;28;20033;-64
2022/04/16 08:20:23;;;;;;;12.65;8.02;;;19.70;4.90;;;;;;5044860;28;20029;-63
2022/04/16 08:22:48;;;;;;;12.82;8.93;;;19.70;5.00;;;;;;5029635;28;20047;-64
2022/04/16 08:27:51;;;;;;;14.13;8.50;;;19.90;5.50;;;;;;5044399;28;20043;-64
2022/04/16 08:30:17;;;;;;;18.08;9.40;;;19.90;5.60;;;;;;5044752;28;20246;-64
2022/04/16 08:32:44;;;;;;;17.05;8.60;;;20.00;5.80;;;;;;5041352;28;20550;-64
2022/04/16 08:35:12;;;;;;;18.92;8.98;;;19.90;6.00;;;;;;5042901;28;20037;-64
2022/04/16 08:37:40;;;;;;;14.15;8.90;;;19.90;6.40;;;;;;5042472;28;20040;-64
2022/04/16 08:40:07;;;;;;;16.33;9.48;;;19.90;7.00;;;;;;5044744;28;20028;-64
2022/04/16 08:42:37;;;;;;;14.93;10.05;;;19.90;6.00;;;;;;5046882;28;20132;-64
2022/04/16 08:45:05;;;;;;;12.85;9.02;;;20.00;7.30;;;;;;5049221;28;20470;-64
2022/04/16 08:47:31;;;;;;;15.95;9.77;;;20.00;6.20;;;;;;5048240;28;20036;-63
2022/04/16 08:49:59;;;;;;;16.65;10.43;;;20.00;6.80;;;;;;5030634;28;20029;-64
2022/04/16 08:52:29;;;;;;;16.35;9.60;;;20.00;6.70;;;;;;5045724;28;20040;-64
2022/04/16 08:54:56;;;;;;;14.77;8.90;;;20.10;6.60;;;;;;5039566;28;20048;-63
2022/04/16 08:57:21;;;;;;;13.13;9.07;;;20.20;6.60;;;;;;5047217;28;20037;-63
2022/04/16 08:59:52;;;;;;;14.60;10.23;;;20.20;6.70;;;;;;5040982;28;20079;-64
2022/04/16 09:02:22;;;;;;;13.93;9.20;;;20.30;13.30;;;;;;5047635;28;20036;-64
2022/04/16 09:04:49;;;;;;;15.88;9.32;;;20.40;12.90;;;;;;5048750;28;20117;-64
2022/04/16 09:07:15;;;;;;;17.15;9.57;;;20.50;13.00;;;;;;5053334;28;20040;-63
2022/04/16 09:09:42;;;;;;;14.98;8.88;;;20.50;12.80;;;;;;5043971;28;20031;-64
2022/04/16 09:12:18;;;;;;;14.90;9.45;;;20.70;11.00;;;;;;5030226;28;20044;-64
2022/04/16 09:14:45;;;;;;;15.32;10.02;;;20.60;8.30;;;;;;5041114;28;20056;-63
2022/04/16 09:17:16;;;;;;;12.93;9.88;;;20.60;6.80;;;;;;5042744;28;20033;-63
2022/04/16 09:19:41;;;;;;;13.45;9.48;;;20.80;7.40;;;;;;5045031;28;20474;-63
2022/04/16 09:22:10;;;;;;;13.30;8.98;;;20.70;6.10;;;;;;5047564;28;20065;-63
2022/04/16 09:24:48;;;;;;;15.80;9.70;;;20.80;5.60;;;;;;5045953;28;20131;-63
2022/04/16 09:27:15;;;;;;;13.85;9.23;;;20.90;6.60;;;;;;5047449;28;20083;-63
2022/04/16 09:29:40;;;;;;;15.02;9.45;;;20.80;6.40;;;;;;5035429;28;20021;-63
2022/04/16 09:32:07;;;;;;;14.73;9.93;;;20.90;6.10;;;;;;5049018;28;20459;-64
2022/04/16 09:34:32;;;;;;;13.70;9.38;;;21.00;6.30;;;;;;5019986;28;20495;-64
2022/04/16 09:37:11;;;;;;;14.25;9.55;;;21.00;6.20;;;;;;5049318;28;20064;-64
2022/04/16 09:39:36;;;;;;;15.48;9.40;;;21.10;6.10;;;;;;5054156;28;20028;-64
2022/04/16 09:42:02;;;;;;;15.68;10.07;;;21.10;6.50;;;;;;5061743;28;20037;-64
2022/04/16 09:44:28;;;;;;;12.50;9.48;;;21.20;6.20;;;;;;5075355;28;20036;-64
2022/04/16 09:46:57;;;;;;;14.93;9.65;;;21.10;6.50;;;;;;5066716;28;20028;-63
2022/04/16 09:49:25;;;;;;;20.40;11.57;;;21.20;6.10;;;;;;5042473;28;20112;-64
2022/04/16 09:51:51;;;;;;;16.58;11.73;;;21.20;6.40;;;;;;5041931;28;20025;-64
2022/04/16 09:54:18;;;;;;;14.43;11.30;;;21.30;7.30;;;;;;5052659;28;20115;-63
2022/04/16 09:56:46;;;;;;;14.95;10.85;;;21.20;6.50;;;;;;5059204;28;20054;-64
2022/04/16 09:59:13;;;;;;;14.07;10.13;;;21.30;6.20;;;;;;5075106;28;20020;-64
2022/04/16 10:01:49;;;;;;;17.27;9.55;;;21.30;6.20;;;;;;5068363;28;20035;-64
2022/04/16 10:04:18;;;;;;;16.08;10.07;;;21.50;7.10;;;;;;5037373;28;20086;-64
2022/04/16 10:06:46;;;;;;;14.77;9.93;;;21.50;7.90;;;;;;5059034;28;20100;-63
2022/04/16 10:09:22;;;;;;;13.30;10.57;;;21.70;9.90;;;;;;5073489;28;20036;-64
2022/04/16 10:14:54;;;;;;;15.82;10.65;;;21.70;8.70;;;;;;5072535;28;20043;-64
2022/04/16 10:17:42;;;;;;;15.10;9.90;;;21.70;5.50;;;;;;5044580;28;20029;-64
2022/04/16 10:20:15;;;;;;;14.85;11.23;;;21.80;5.30;;;;;;5038077;28;20060;-64
2022/04/16 10:22:51;;;;;;;15.75;9.68;;;21.80;5.50;;;;;;5065957;28;20052;-63
2022/04/16 10:25:44;;;;;;;13.80;9.98;;;21.90;5.70;;;;;;5071791;28;20111;-62
2022/04/16 10:28:16;;;;;;;14.40;10.75;;;22.10;7.80;;;;;;5052771;28;20086;-62
2022/04/16 10:30:50;;;;;;;16.52;12.10;;;22.20;7.70;;;;;;5053040;28;20024;-62
2022/04/16 10:33:18;;;;;;;18.48;13.20;;;22.20;10.30;;;;;;5064408;28;20074;-62
2022/04/16 10:35:50;;;;;;;16.92;11.73;;;22.20;5.40;;;;;;5056435;28;20104;-63
2022/04/16 10:38:26;;;;;;;14.82;11.35;;;22.30;5.10;;;;;;5056552;28;20098;-62
2022/04/16 10:40:59;;;;;;;18.48;13.13;;;22.30;4.40;;;;;;5054214;28;20035;-62
2022/04/16 10:43:30;;;;;;;19.50;13.00;;;22.40;4.90;;;;;;5054768;28;20151;-62
2022/04/16 10:46:08;;;;;;;17.67;12.13;;;22.40;4.70;;;;;;5044105;28;20335;-62
2022/04/16 10:48:38;;;;;;;16.58;12.45;;;;;;;;;;5051870;28;20049;-62
2022/04/16 10:51:05;;;;;;;18.13;11.55;;;22.60;3.60;;;;;;5054388;28;20021;-62
2022/04/16 10:53:36;;;;;;;18.02;11.05;;;22.70;4.00;;;;;;5070595;28;20032;-62
2022/04/16 10:56:13;;;;;;;18.52;11.82;;;22.70;4.00;;;;;;5073095;28;20127;-61
2022/04/16 10:58:44;;;;;;;15.25;11.38;;;22.80;2.70;;;;;;5051425;28;20031;-62
2022/04/16 11:01:11;;;;;;;11.77;9.88;;;;;;;;;;5052111;28;20029;-62
2022/04/16 11:03:47;;;;;;;13.52;10.23;;;22.90;2.40;;;;;;5052004;28;20033;-63
2022/04/16 11:06:13;;;;;;;13.80;9.60;;;22.90;2.40;;;;;;5052854;28;20029;-63
2022/04/16 11:08:41;;;;;;;12.18;9.50;;;22.90;2.50;;;;;;5051876;28;20029;-62
2022/04/16 11:11:10;;;;;;;14.20;8.25;;;23.20;7.40;;;;;;5064491;28;20040;-62
2022/04/16 11:13:37;;;;;;;11.20;7.93;;;;;;;;;;5070761;28;20017;-63
2022/04/16 11:16:04;;;;;;;10.18;7.65;;;23.40;1.00;;;;;;5044173;28;20056;-62
2022/04/16 11:18:47;;;;;;;12.10;7.93;;;23.50;1.00;;;;;;5068406;28;20064;-62
2022/04/16 11:21:25;;;;;;;10.65;6.40;;;23.60;1.00;;;;;;5072560;28;20052;-62
2022/04/16 11:23:52;;;;;;;11.88;7.10;;;23.50;1.00;;;;;;5070973;28;20102;-62
2022/04/16 11:34:41;;;;;;;12.27;8.02;;;23.90;1.00;;;;;;5072292;28;20488;-63
2022/04/16 11:37:08;;;;;;;12.75;8.60;;;24.00;1.00;;;;;;5068142;28;20037;-63
2022/04/16 11:39:36;;;;;;;14.63;9.40;;;24.20;1.00;;;;;;5054132;28;20161;-62
2022/04/16 11:42:10;;;;;;;13.90;8.38;;;24.20;1.00;;;;;;5069138;28;20056;-62
2022/04/16 11:44:43;;;;;;;10.68;6.97;;;24.40;1.00;;;;;;5072162;28;20553;-62
2022/04/16 11:47:09;;;;;;;9.82;7.03;;;;;;;;;;5065814;28;20033;-62
2022/04/16 11:49:40;;;;;;;12.77;8.57;;;;;;;;;;5048547;28;20502;-63
2022/04/16 11:52:07;;;;;;;14.27;9.27;;;24.90;16.40;;;;;;5051175;28;20802;-63
2022/04/16 11:54:33;;;;;;;9.80;8.55;;;25.20;13.60;;;;;;5052060;28;20453;-62
2022/04/16 11:56:59;;;;;;;9.32;7.75;;;25.30;1.00;;;;;;4982521;28;1549626;-62
2022/04/16 11:59:26;;;;;;;10.77;8.13;;;25.50;2.20;;;;;;5040177;28;20034;-62
2022/04/16 12:02:03;;;;;;;15.05;8.73;;;25.70;1.00;;;;;;5034483;28;20072;-62
2022/04/16 12:04:37;;;;;;;8.75;6.60;;;25.90;1.00;;;;;;5064587;28;20096;-62
2022/04/16 12:07:09;;;;;;;11.50;7.95;;;;;;;;;;5054277;28;20040;-61
2022/04/16 12:09:35;;;;;;;15.43;8.52;;;27.20;1.00;;;;;;5070406;28;20028;-61
2022/04/16 12:12:03;;;;;;;10.52;8.05;;;27.20;1.00;;;;;;5069469;28;20334;-61
2022/04/16 12:14:29;;;;;;;10.98;8.05;;;27.70;1.00;;;;;;5071754;28;20115;-61
2022/04/16 12:16:59;;;;;;;10.10;7.72;;;28.90;1.00;;;;;;5067386;28;20116;-61
2022/04/16 12:19:33;;;;;;;10.55;8.07;;;;;;;;;;5055126;28;20430;-64
2022/04/16 12:21:59;;;;;;;10.65;7.78;;;29.90;1.00;;;;;;5047892;28;20037;-63
2022/04/16 12:24:29;;;;;;;11.38;8.65;;;31.00;1.00;;;;;;5051918;28;20112;-63
2022/04/16 12:26:57;;;;;;;12.48;9.30;;;33.20;1.00;;;;;;5051194;28;20026;-67
2022/04/16 12:29:28;;;;;;;13.18;8.27;;;34.40;1.00;;;;;;5054839;28;20030;-62
2022/04/16 12:31:58;;;;;;;10.50;7.93;;;34.00;1.00;;;;;;5069215;28;20126;-62
2022/04/16 12:34:27;;;;;;;12.75;8.38;;;38.30;1.00;;;;;;5051716;28;20035;-63
2022/04/16 12:36:53;;;;;;;12.27;9.10;;;38.60;1.00;;;;;;5042375;28;20021;-61
2022/04/16 12:39:19;;;;;;;12.65;9.93;;;40.00;1.00;;;;;;5051275;28;20505;-64
2022/04/16 12:41:45;;;;;;;10.82;9.82;;;41.60;1.00;;;;;;5051003;28;20029;-62
2022/04/16 12:44:10;;;;;;;10.77;9.68;;;43.20;1.00;;;;;;5070522;28;20088;-62
2022/04/16 12:46:36;;;;;;;11.30;10.05;;;43.70;1.00;;;;;;5062314;28;20104;-62
2022/04/16 12:49:01;;;;;;;12.07;10.85;;;43.70;1.00;;;;;;5068563;28;20073;-62
2022/04/16 12:51:27;;;;;;;11.52;10.27;;;42.80;1.00;;;;;;5071557;28;20017;-63
2022/04/16 12:53:53;;;;;;;11.60;9.73;;;42.10;1.00;;;;;;5052516;28;20035;-62
2022/04/16 12:56:19;;;;;;;9.68;8.73;;;40.40;1.00;;;;;;5050940;28;20132;-62
2022/04/16 12:58:45;;;;;;;9.82;8.60;;;38.50;1.00;;;;;;5054485;28;20041;-62
2022/04/16 13:01:10;;;;;;;11.50;10.35;;;38.20;1.00;;;;;;5051595;28;20374;-62
2022/04/16 13:03:36;;;;;;;10.02;9.13;;;;;;;;;;5050673;28;20060;-63